Time;durP1;ratioP1;P1;durP2;ratioP2;P2;SDS_P1;SDS_P2;PMS_P1;PMS_P2;Temp;Humidity;BMP_temperature;BMP_pressure;BME280_temperature;BME280_humidity;BME280_pressure;Samples;Min_cycle;Max_cycle;Signal;HPM_P1;HPM_P2
2022/05/11 00:00:14;;;;;;;16.42;13.30;;;14.30;83.20;;;;;;5092638;28;20134;-69
2022/05/11 00:02:40;;;;;;;21.25;13.65;;;14.20;83.30;;;;;;5092425;28;20040;-69
2022/05/11 00:05:09;;;;;;;20.70;13.60;;;14.30;83.40;;;;;;5091874;28;20127;-69
2022/05/11 00:07:34;;;;;;;24.60;13.40;;;14.30;83.50;;;;;;5092266;28;20085;-69
2022/05/11 00:10:00;;;;;;;22.23;13.98;;;14.30;83.60;;;;;;5092010;28;20143;-69
2022/05/11 00:12:26;;;;;;;22.70;13.93;;;14.30;83.80;;;;;;5092074;28;20044;-69
2022/05/11 00:14:52;;;;;;;20.40;13.43;;;14.30;83.70;;;;;;5091931;28;20060;-69
2022/05/11 00:17:19;;;;;;;20.45;13.55;;;14.30;83.90;;;;;;5090810;28;20052;-69
2022/05/11 00:19:44;;;;;;;23.85;14.05;;;14.30;83.80;;;;;;5091886;28;20050;-69
2022/05/11 00:22:10;;;;;;;17.63;13.63;;;14.30;83.70;;;;;;5090849;28;20110;-69
2022/05/11 00:24:36;;;;;;;18.63;12.80;;;14.30;83.70;;;;;;5091975;28;20044;-69
2022/05/11 00:27:02;;;;;;;22.75;12.52;;;14.30;83.80;;;;;;5091959;28;20044;-69
2022/05/11 00:29:30;;;;;;;20.52;12.85;;;14.20;84.00;;;;;;5091345;28;20420;-69
2022/05/11 00:31:56;;;;;;;30.33;13.55;;;14.30;83.90;;;;;;5092060;28;20040;-69
2022/05/11 00:34:22;;;;;;;17.05;11.32;;;14.20;84.00;;;;;;5091723;28;20089;-69
2022/05/11 00:36:47;;;;;;;22.42;12.65;;;14.30;84.00;;;;;;5091283;28;20044;-69
2022/05/11 00:39:13;;;;;;;18.67;12.57;;;14.20;83.80;;;;;;5091918;28;20048;-69
2022/05/11 00:41:42;;;;;;;18.85;12.05;;;14.30;83.70;;;;;;5090167;28;20051;-69
2022/05/11 00:44:09;;;;;;;22.42;12.38;;;14.30;83.80;;;;;;5091678;28;20046;-69
2022/05/11 00:46:55;;;;;;;19.85;12.57;;;14.30;83.90;;;;;;5091533;28;20389;-69
2022/05/11 00:49:45;;;;;;;20.08;11.30;;;14.30;83.90;;;;;;5091095;28;20579;-69
2022/05/11 00:52:24;;;;;;;23.45;12.63;;;14.30;83.60;;;;;;5091605;28;20052;-69
2022/05/11 00:55:02;;;;;;;19.77;12.23;;;14.30;84.10;;;;;;5091501;28;20044;-69
2022/05/11 00:57:45;;;;;;;22.75;11.73;;;14.20;84.00;;;;;;5091261;28;20047;-69
2022/05/11 01:00:11;;;;;;;20.63;11.10;;;14.20;83.90;;;;;;5090845;28;20044;-69
2022/05/11 01:02:39;;;;;;;20.95;11.70;;;14.20;83.80;;;;;;5091184;28;20064;-69
2022/05/11 01:05:06;;;;;;;19.23;11.05;;;14.30;83.90;;;;;;5090304;28;20721;-69
2022/05/11 01:07:33;;;;;;;24.73;13.20;;;14.30;83.80;;;;;;5091109;28;20173;-69
2022/05/11 01:09:59;;;;;;;17.60;11.25;;;14.30;83.70;;;;;;5091008;28;20063;-68
2022/05/11 01:12:54;;;;;;;19.25;12.35;;;14.30;83.70;;;;;;5090678;28;20060;-69
2022/05/11 01:15:21;;;;;;;20.33;11.35;;;14.30;83.60;;;;;;5089815;28;20056;-69
2022/05/11 01:17:47;;;;;;;16.48;10.90;;;14.30;83.80;;;;;;5091187;28;20687;-69
2022/05/11 01:20:17;;;;;;;19.67;12.10;;;14.30;83.60;;;;;;5090936;28;20467;-69
2022/05/11 01:23:13;;;;;;;14.90;9.77;;;14.30;83.70;;;;;;5090804;28;20412;-69
2022/05/11 01:25:39;;;;;;;18.13;9.55;;;14.30;83.60;;;;;;5090394;28;20131;-69
2022/05/11 01:28:16;;;;;;;17.95;9.90;;;14.30;83.70;;;;;;5090919;28;20123;-69
2022/05/11 01:30:51;;;;;;;14.55;9.48;;;14.30;83.70;;;;;;5090623;28;20083;-69
2022/05/11 01:33:23;;;;;;;21.08;10.40;;;14.30;83.80;;;;;;5090582;28;20489;-69
2022/05/11 01:36:09;;;;;;;18.35;10.88;;;14.30;83.70;;;;;;5090562;28;20078;-69
2022/05/11 01:38:44;;;;;;;17.92;10.32;;;14.30;83.50;;;;;;5090669;28;20051;-69
2022/05/11 01:41:17;;;;;;;17.42;10.00;;;14.30;83.50;;;;;;5090567;28;20134;-69
2022/05/11 01:43:43;;;;;;;19.92;11.25;;;14.30;83.40;;;;;;5090558;28;20036;-69
2022/05/11 01:46:09;;;;;;;18.92;9.98;;;14.30;83.40;;;;;;5090548;28;20047;-69
2022/05/11 01:48:35;;;;;;;15.95;8.55;;;14.20;83.60;;;;;;5090584;28;20051;-69
2022/05/11 01:51:00;;;;;;;16.40;9.07;;;14.20;83.60;;;;;;5090379;28;20036;-69
2022/05/11 01:53:27;;;;;;;17.42;9.25;;;14.30;83.60;;;;;;5090023;28;20042;-69
2022/05/11 01:55:53;;;;;;;16.13;8.57;;;14.20;83.50;;;;;;5090087;28;20047;-69
2022/05/11 01:58:22;;;;;;;14.75;7.68;;;14.20;83.50;;;;;;5090185;28;20455;-69
2022/05/11 02:00:48;;;;;;;13.30;8.10;;;14.20;83.40;;;;;;5090156;28;20047;-69
2022/05/11 02:03:17;;;;;;;18.50;7.97;;;14.20;83.40;;;;;;5090187;28;20043;-69
2022/05/11 02:08:28;;;;;;;23.52;8.70;;;14.30;83.20;;;;;;5089857;28;20051;-69
2022/05/11 02:10:54;;;;;;;12.88;8.07;;;14.20;83.20;;;;;;5089985;28;20451;-69
2022/05/11 02:13:21;;;;;;;17.88;7.65;;;14.30;83.10;;;;;;5071738;28;20101;-69
2022/05/11 02:15:49;;;;;;;12.88;7.45;;;14.30;82.90;;;;;;5089858;28;20055;-69
2022/05/11 02:18:15;;;;;;;17.58;7.72;;;14.30;82.90;;;;;;5089626;28;20036;-69
2022/05/11 02:20:41;;;;;;;17.90;7.70;;;14.30;82.90;;;;;;5089595;28;20052;-69
2022/05/11 02:23:07;;;;;;;15.23;7.82;;;14.30;82.80;;;;;;5089995;28;20054;-69
2022/05/11 02:25:32;;;;;;;18.65;8.57;;;14.30;82.80;;;;;;5089261;28;20048;-69
2022/05/11 02:27:58;;;;;;;16.17;7.88;;;14.30;82.90;;;;;;5089053;28;20388;-69
2022/05/11 02:30:29;;;;;;;18.08;8.13;;;14.30;82.80;;;;;;5089538;28;20082;-70
2022/05/11 02:32:55;;;;;;;15.45;7.82;;;14.30;82.80;;;;;;5089862;28;20048;-69
2022/05/11 02:35:22;;;;;;;14.57;6.90;;;14.30;82.70;;;;;;5089410;28;20046;-68
2022/05/11 02:37:54;;;;;;;12.95;7.10;;;14.30;82.70;;;;;;5089099;28;20044;-68
2022/05/11 02:40:23;;;;;;;18.70;7.90;;;14.30;82.80;;;;;;5088221;28;20508;-68
2022/05/11 02:42:49;;;;;;;12.07;7.05;;;14.30;82.80;;;;;;5089520;28;20105;-68
2022/05/11 02:45:16;;;;;;;17.00;8.00;;;14.30;82.60;;;;;;5089198;28;20044;-68
2022/05/11 02:47:43;;;;;;;15.43;7.97;;;14.30;82.60;;;;;;5089520;28;20071;-68
2022/05/11 02:50:11;;;;;;;11.52;7.38;;;14.30;82.90;;;;;;5089302;28;20048;-69
2022/05/11 02:52:37;;;;;;;15.65;7.80;;;14.30;82.80;;;;;;5089559;28;20137;-68
2022/05/11 02:55:03;;;;;;;15.57;8.20;;;14.30;82.80;;;;;;5089513;28;20524;-69
2022/05/11 02:57:29;;;;;;;18.75;8.70;;;14.40;82.90;;;;;;5089474;28;20040;-69
2022/05/11 02:59:54;;;;;;;14.60;8.40;;;14.40;82.90;;;;;;5089344;28;20588;-69
2022/05/11 03:02:21;;;;;;;13.13;7.45;;;14.40;82.90;;;;;;5089529;28;20055;-68
2022/05/11 03:04:48;;;;;;;11.68;8.18;;;14.40;83.00;;;;;;5089494;28;20499;-68
2022/05/11 03:07:14;;;;;;;17.38;9.40;;;14.30;83.50;;;;;;5089428;28;20554;-69
2022/05/11 03:09:39;;;;;;;17.10;7.65;;;14.30;83.30;;;;;;5089146;28;20134;-68
2022/05/11 03:12:06;;;;;;;15.40;7.78;;;14.30;83.30;;;;;;5088907;28;20064;-68
2022/05/11 03:14:32;;;;;;;13.15;7.68;;;14.30;83.30;;;;;;5089373;28;20047;-68
2022/05/11 03:16:58;;;;;;;11.32;7.85;;;14.40;83.20;;;;;;5089232;28;20040;-68
2022/05/11 03:19:24;;;;;;;17.95;7.03;;;14.40;83.20;;;;;;5089176;28;20040;-68
2022/05/11 03:21:50;;;;;;;17.67;8.20;;;14.40;83.20;;;;;;5087835;28;20044;-68
2022/05/11 03:24:17;;;;;;;15.25;7.53;;;14.40;83.20;;;;;;5089242;28;20048;-69
2022/05/11 03:26:43;;;;;;;18.60;6.97;;;14.40;83.10;;;;;;5089184;28;20055;-68
2022/05/11 03:29:09;;;;;;;12.20;6.70;;;14.40;83.10;;;;;;5089468;28;20056;-68
2022/05/11 03:31:36;;;;;;;13.23;6.32;;;14.50;83.10;;;;;;5088772;28;20497;-69
2022/05/11 03:36:50;;;;;;;15.48;6.65;;;14.40;83.10;;;;;;5087877;28;20564;-68
2022/05/11 03:39:16;;;;;;;15.13;6.60;;;14.40;83.00;;;;;;5092804;28;20046;-68
2022/05/11 03:41:45;;;;;;;15.27;6.72;;;14.40;82.90;;;;;;5091613;28;20926;-68
2022/05/11 03:44:14;;;;;;;10.77;6.90;;;14.40;82.80;;;;;;5092486;28;20052;-68
2022/05/11 03:46:40;;;;;;;17.10;6.63;;;14.30;82.80;;;;;;5092946;28;20928;-68
2022/05/11 03:49:06;;;;;;;20.42;6.88;;;14.30;82.70;;;;;;5092793;28;20048;-69
2022/05/11 03:51:32;;;;;;;17.10;6.30;;;14.30;82.70;;;;;;5092782;28;20052;-69
2022/05/11 03:53:57;;;;;;;16.48;6.40;;;14.30;82.70;;;;;;5092805;28;20055;-69
2022/05/11 03:56:23;;;;;;;18.42;6.65;;;14.30;82.70;;;;;;5092672;28;20044;-69
2022/05/11 03:58:49;;;;;;;27.77;8.38;;;14.30;82.60;;;;;;5092225;28;20446;-69
2022/05/11 04:01:14;;;;;;;11.57;5.60;;;14.30;82.50;;;;;;5092262;28;20131;-69
2022/05/11 04:03:41;;;;;;;16.38;6.18;;;14.30;82.40;;;;;;5091954;28;20135;-68
2022/05/11 04:06:07;;;;;;;14.27;5.78;;;14.30;82.30;;;;;;5092158;28;20075;-69
2022/05/11 04:08:33;;;;;;;15.25;5.82;;;14.30;82.20;;;;;;5092081;28;20466;-68
2022/05/11 04:10:58;;;;;;;21.88;8.32;;;14.30;82.20;;;;;;5091970;28;20751;-68
2022/05/11 04:13:24;;;;;;;15.38;5.63;;;14.30;82.10;;;;;;5090671;28;20060;-69
2022/05/11 04:15:51;;;;;;;14.82;5.50;;;14.30;82.00;;;;;;5090701;28;20040;-69
2022/05/11 04:18:20;;;;;;;16.33;6.03;;;14.30;81.90;;;;;;5092088;28;20055;-69
2022/05/11 04:20:46;;;;;;;22.17;7.47;;;14.30;81.90;;;;;;5091750;28;20040;-68
2022/05/11 04:23:12;;;;;;;15.63;5.70;;;14.30;82.00;;;;;;5091875;28;20452;-68
2022/05/11 04:25:38;;;;;;;17.77;6.47;;;14.30;81.90;;;;;;5092006;28;20048;-69
2022/05/11 04:28:12;;;;;;;16.30;5.45;;;14.30;81.80;;;;;;5091759;28;20040;-68
2022/05/11 04:30:39;;;;;;;18.10;5.70;;;14.40;81.90;;;;;;5091838;28;20048;-69
2022/05/11 04:33:08;;;;;;;14.77;5.50;;;14.40;81.90;;;;;;5091748;28;20408;-69
2022/05/11 04:35:34;;;;;;;15.65;6.30;;;14.40;81.90;;;;;;5091519;28;20072;-69
2022/05/11 04:38:04;;;;;;;16.25;5.97;;;14.40;81.90;;;;;;5091613;28;20772;-69
2022/05/11 04:40:31;;;;;;;17.02;6.25;;;14.40;81.90;;;;;;5091354;28;20051;-69
2022/05/11 04:42:57;;;;;;;16.70;6.28;;;14.40;82.00;;;;;;5090643;28;20439;-69
2022/05/11 04:45:23;;;;;;;17.73;6.03;;;14.50;82.10;;;;;;5091294;28;20080;-69
2022/05/11 04:47:49;;;;;;;16.15;5.10;;;14.50;82.20;;;;;;5091336;28;20498;-69
2022/05/11 04:50:16;;;;;;;17.63;5.72;;;14.50;82.10;;;;;;5089204;28;20043;-69
2022/05/11 04:52:43;;;;;;;17.13;5.35;;;14.40;82.10;;;;;;5091101;28;20035;-69
2022/05/11 04:55:10;;;;;;;14.30;5.88;;;14.50;82.00;;;;;;5091321;28;20040;-69
2022/05/11 04:57:37;;;;;;;14.50;6.15;;;14.50;81.90;;;;;;5091237;28;20051;-69
2022/05/11 05:00:10;;;;;;;17.30;5.78;;;14.60;81.70;;;;;;5089346;28;20527;-69
2022/05/11 05:02:36;;;;;;;15.77;5.93;;;14.50;81.70;;;;;;5091224;28;20591;-69
2022/05/11 05:05:05;;;;;;;17.00;4.60;;;14.50;81.60;;;;;;5091253;28;20040;-69
2022/05/11 05:07:34;;;;;;;19.33;4.82;;;14.50;81.50;;;;;;5091043;28;20099;-69
2022/05/11 05:10:01;;;;;;;20.58;6.22;;;14.50;81.50;;;;;;5091185;28;20040;-69
2022/05/11 05:12:26;;;;;;;16.23;5.28;;;14.50;81.20;;;;;;5090707;28;20091;-69
2022/05/11 05:14:52;;;;;;;19.05;5.53;;;14.60;81.10;;;;;;5091573;28;20071;-69
2022/05/11 05:17:17;;;;;;;20.70;5.57;;;14.60;80.90;;;;;;5091015;28;20097;-69
2022/05/11 05:19:45;;;;;;;21.73;5.47;;;14.60;80.70;;;;;;5090660;28;20048;-69
2022/05/11 05:22:11;;;;;;;14.45;4.40;;;14.50;80.60;;;;;;5090820;28;20488;-70
2022/05/11 05:24:36;;;;;;;17.83;5.40;;;14.60;80.40;;;;;;5090646;28;20051;-70
2022/05/11 05:27:03;;;;;;;19.67;5.20;;;14.60;80.30;;;;;;5090820;28;20061;-70
2022/05/11 05:32:14;;;;;;;17.63;5.57;;;14.60;80.20;;;;;;5090862;28;20131;-69
2022/05/11 05:34:43;;;;;;;17.45;5.28;;;14.60;80.10;;;;;;5090628;28;20552;-70
2022/05/11 05:37:09;;;;;;;16.88;5.47;;;14.60;80.20;;;;;;5090372;28;20055;-70
2022/05/11 05:39:35;;;;;;;18.23;5.35;;;14.60;80.10;;;;;;5090465;28;20063;-70
2022/05/11 05:42:01;;;;;;;15.75;4.97;;;14.60;80.00;;;;;;5090224;28;20051;-69
2022/05/11 05:44:30;;;;;;;20.58;5.53;;;14.70;79.90;;;;;;5090241;28;20040;-69
2022/05/11 05:47:02;;;;;;;18.17;5.60;;;14.70;79.80;;;;;;5090392;28;20411;-70
2022/05/11 05:49:28;;;;;;;16.88;5.07;;;14.70;79.60;;;;;;5090295;28;20070;-69
2022/05/11 05:51:54;;;;;;;11.23;4.13;;;14.60;79.40;;;;;;5090266;28;20117;-70
2022/05/11 05:54:19;;;;;;;23.40;4.65;;;14.60;79.60;;;;;;5089705;28;20067;-70
2022/05/11 05:56:45;;;;;;;11.07;4.47;;;14.60;79.50;;;;;;5089992;28;20043;-68
2022/05/11 05:59:11;;;;;;;19.88;4.10;;;14.70;79.60;;;;;;5090070;28;20048;-69
2022/05/11 06:01:38;;;;;;;12.98;5.03;;;14.60;79.80;;;;;;5089810;28;20047;-68
2022/05/11 06:04:05;;;;;;;18.35;4.78;;;14.60;79.30;;;;;;5090161;28;20497;-69
2022/05/11 06:06:30;;;;;;;14.20;4.18;;;14.70;79.10;;;;;;5089841;28;20054;-69
2022/05/11 06:08:56;;;;;;;17.58;5.45;;;14.60;79.00;;;;;;5089415;28;20044;-70
2022/05/11 06:11:21;;;;;;;16.25;5.32;;;14.60;79.20;;;;;;5089633;28;20048;-69
2022/05/11 06:13:47;;;;;;;14.30;4.32;;;14.70;79.00;;;;;;5089874;28;20055;-69
2022/05/11 06:16:15;;;;;;;23.25;4.55;;;14.70;78.70;;;;;;5089417;28;20408;-69
2022/05/11 06:18:42;;;;;;;20.65;5.10;;;14.70;78.50;;;;;;5089917;28;20104;-69
2022/05/11 06:21:09;;;;;;;10.85;3.78;;;14.60;78.50;;;;;;5089732;28;20044;-69
2022/05/11 06:23:37;;;;;;;16.42;4.70;;;14.70;78.60;;;;;;5088273;28;20050;-69
2022/05/11 06:26:03;;;;;;;13.23;3.95;;;14.70;78.60;;;;;;5089416;28;20040;-69
2022/05/11 06:28:28;;;;;;;15.55;4.38;;;14.70;78.60;;;;;;5089553;28;20071;-69
2022/05/11 06:30:54;;;;;;;25.05;5.95;;;14.70;78.60;;;;;;5089632;28;20032;-69
2022/05/11 06:33:19;;;;;;;16.58;4.43;;;14.70;78.60;;;;;;5089717;28;20052;-69
2022/05/11 06:35:45;;;;;;;19.52;4.85;;;14.80;78.50;;;;;;5089417;28;20039;-69
2022/05/11 06:38:11;;;;;;;15.57;4.45;;;14.80;78.40;;;;;;5088179;28;20048;-69
2022/05/11 06:40:37;;;;;;;12.70;4.57;;;14.80;78.40;;;;;;5089126;28;20044;-69
2022/05/11 06:43:03;;;;;;;20.55;5.57;;;14.80;78.40;;;;;;5089385;28;20503;-69
2022/05/11 06:45:30;;;;;;;15.75;5.35;;;14.70;78.50;;;;;;5089630;28;20409;-69
2022/05/11 06:47:55;;;;;;;21.85;5.45;;;14.70;78.40;;;;;;5089463;28;20086;-69
2022/05/11 06:50:24;;;;;;;16.70;4.43;;;14.80;78.40;;;;;;5089281;28;20075;-69
2022/05/11 06:52:49;;;;;;;20.33;4.30;;;14.90;78.30;;;;;;5089093;28;20500;-69
2022/05/11 07:00:43;;;;;;;15.90;4.68;;;14.80;78.40;;;;;;5089043;28;20056;-69
2022/05/11 07:03:09;;;;;;;15.00;4.68;;;14.90;78.30;;;;;;5088027;28;20047;-69
2022/05/11 07:05:35;;;;;;;17.40;5.15;;;14.90;78.20;;;;;;5089272;28;20048;-70
2022/05/11 07:08:02;;;;;;;14.05;3.65;;;14.90;78.20;;;;;;5089497;28;20051;-70
2022/05/11 07:10:28;;;;;;;18.13;4.60;;;15.00;78.00;;;;;;5089103;28;20048;-69
2022/05/11 07:12:53;;;;;;;24.00;5.53;;;14.90;77.90;;;;;;5090869;28;20408;-70
2022/05/11 07:15:22;;;;;;;17.13;4.25;;;14.90;78.10;;;;;;5092981;28;20044;-73
2022/05/11 07:17:49;;;;;;;25.23;4.93;;;14.90;77.80;;;;;;5092081;28;20052;-69
2022/05/11 07:20:19;;;;;;;24.23;5.65;;;15.00;77.90;;;;;;5093017;28;20109;-69
2022/05/11 07:22:45;;;;;;;19.58;5.20;;;15.00;77.80;;;;;;5093215;28;20048;-75
2022/05/11 07:25:14;;;;;;;20.80;4.25;;;15.00;77.80;;;;;;5091886;28;20048;-71
2022/05/11 07:27:42;;;;;;;20.95;4.70;;;15.00;78.00;;;;;;5091598;28;20067;-72
2022/05/11 07:30:10;;;;;;;17.30;4.20;;;15.10;77.80;;;;;;5074694;28;20545;-71
2022/05/11 07:32:36;;;;;;;15.75;4.18;;;15.10;78.30;;;;;;5092852;28;20048;-70
2022/05/11 07:35:03;;;;;;;21.48;5.75;;;15.10;77.90;;;;;;5092432;28;20443;-69
2022/05/11 07:37:28;;;;;;;19.77;4.50;;;15.10;77.80;;;;;;5092864;28;20062;-69
2022/05/11 07:39:56;;;;;;;24.77;5.05;;;15.10;77.80;;;;;;5091692;28;20485;-70
2022/05/11 07:42:22;;;;;;;20.45;4.63;;;15.10;77.60;;;;;;5092771;28;20055;-69
2022/05/11 07:44:48;;;;;;;18.52;5.72;;;15.10;77.80;;;;;;5092433;28;20463;-69
2022/05/11 07:47:13;;;;;;;20.80;5.00;;;15.10;77.70;;;;;;5092807;28;20131;-69
2022/05/11 07:49:40;;;;;;;32.58;9.25;;;15.10;78.00;;;;;;5092773;28;20113;-69
2022/05/11 07:52:07;;;;;;;24.05;4.85;;;15.10;77.90;;;;;;5092463;28;20071;-69
2022/05/11 07:54:33;;;;;;;19.25;5.13;;;15.20;78.10;;;;;;5092030;28;20467;-69
2022/05/11 07:59:52;;;;;;;25.10;4.72;;;15.30;78.10;;;;;;5092313;28;20162;-69
2022/05/11 08:02:18;;;;;;;23.65;4.93;;;15.40;77.70;;;;;;5092195;28;20056;-69
2022/05/11 08:04:43;;;;;;;21.83;4.50;;;15.50;77.80;;;;;;5092319;28;20047;-69
2022/05/11 08:07:10;;;;;;;21.30;5.20;;;15.50;77.20;;;;;;5092164;28;20480;-69
2022/05/11 08:09:36;;;;;;;19.98;5.43;;;15.60;77.10;;;;;;5092012;28;20477;-70
2022/05/11 08:12:02;;;;;;;17.15;4.95;;;15.70;76.70;;;;;;5090658;28;20051;-69
2022/05/11 08:14:28;;;;;;;21.48;5.43;;;15.60;76.50;;;;;;5091769;28;20057;-69
2022/05/11 08:16:54;;;;;;;22.83;5.85;;;15.60;76.30;;;;;;5092116;28;20079;-69
2022/05/11 08:19:22;;;;;;;24.75;4.57;;;15.70;76.50;;;;;;5091990;28;20127;-67
2022/05/11 08:21:49;;;;;;;22.58;5.50;;;15.80;76.50;;;;;;5091944;28;20048;-68
2022/05/11 08:24:15;;;;;;;22.80;5.13;;;15.90;76.40;;;;;;5090354;28;20047;-69
2022/05/11 08:26:41;;;;;;;24.05;5.70;;;15.90;76.40;;;;;;5091613;28;20052;-69
2022/05/11 08:29:08;;;;;;;23.70;5.70;;;16.00;76.30;;;;;;5091948;28;20040;-69
2022/05/11 08:34:17;;;;;;;21.30;4.25;;;16.10;76.20;;;;;;5091731;28;20048;-69
2022/05/11 08:36:45;;;;;;;22.42;5.90;;;16.10;75.30;;;;;;5091216;28;20046;-69
2022/05/11 08:39:11;;;;;;;24.83;4.65;;;16.20;75.70;;;;;;5092473;28;20089;-70
2022/05/11 08:41:45;;;;;;;21.52;4.50;;;16.30;75.40;;;;;;5091511;28;20063;-69
2022/05/11 08:44:14;;;;;;;18.70;4.30;;;16.40;75.10;;;;;;5091270;28;20051;-70
2022/05/11 08:47:07;;;;;;;18.40;4.65;;;16.40;74.70;;;;;;5091588;28;20043;-69
2022/05/11 08:49:54;;;;;;;21.13;4.78;;;16.50;74.30;;;;;;5091409;28;20063;-70
2022/05/11 08:52:43;;;;;;;19.83;4.25;;;16.60;73.80;;;;;;5091519;28;20412;-70
2022/05/11 08:55:32;;;;;;;17.00;5.05;;;16.60;73.50;;;;;;5091382;28;20416;-69
2022/05/11 08:58:06;;;;;;;20.17;6.28;;;16.70;73.60;;;;;;5090968;28;20055;-69
2022/05/11 09:00:33;;;;;;;29.15;6.00;;;16.80;73.40;;;;;;5090063;28;20052;-70
2022/05/11 09:03:10;;;;;;;28.63;4.60;;;16.90;73.60;;;;;;5091395;28;20036;-69
2022/05/11 09:05:35;;;;;;;18.08;4.72;;;17.10;73.40;;;;;;5090913;28;20101;-69
2022/05/11 09:08:04;;;;;;;21.13;4.28;;;17.10;72.90;;;;;;5091254;28;20040;-69
2022/05/11 09:10:35;;;;;;;17.52;3.97;;;17.10;72.20;;;;;;5090932;28;20086;-68
2022/05/11 09:13:05;;;;;;;18.02;4.68;;;17.10;71.50;;;;;;5091186;28;20446;-70
2022/05/11 09:15:59;;;;;;;18.27;4.35;;;17.10;71.00;;;;;;5090530;28;20087;-69
2022/05/11 09:18:39;;;;;;;18.80;3.33;;;17.10;69.60;;;;;;5090184;28;20390;-69
2022/05/11 09:21:26;;;;;;;15.50;4.40;;;17.00;69.80;;;;;;5090857;28;20070;-70
2022/05/11 09:24:22;;;;;;;13.88;3.13;;;16.90;69.00;;;;;;5090877;28;20040;-69
2022/05/11 09:27:04;;;;;;;11.38;2.55;;;16.90;69.10;;;;;;5090918;28;20040;-69
2022/05/11 09:29:40;;;;;;;20.30;4.07;;;17.10;67.60;;;;;;5090986;28;20147;-69
2022/05/11 09:32:37;;;;;;;13.98;3.10;;;17.10;67.20;;;;;;5090475;28;20059;-69
2022/05/11 09:35:36;;;;;;;11.52;2.42;;;17.10;67.20;;;;;;5090381;28;20063;-69
2022/05/11 09:38:10;;;;;;;12.55;2.75;;;17.10;67.00;;;;;;5090923;28;20088;-69
2022/05/11 09:40:51;;;;;;;11.02;1.92;;;17.00;66.60;;;;;;5090402;28;20056;-69
2022/05/11 09:43:40;;;;;;;14.15;2.78;;;17.10;64.50;;;;;;5088963;28;20111;-69
2022/05/11 09:46:28;;;;;;;11.13;2.97;;;16.90;63.70;;;;;;5090622;28;20044;-70
2022/05/11 09:49:04;;;;;;;12.65;2.67;;;16.90;64.50;;;;;;5090570;28;20048;-68
2022/05/11 09:51:43;;;;;;;13.18;3.72;;;17.00;65.40;;;;;;5089200;28;20144;-68
2022/05/11 09:54:42;;;;;;;8.85;1.90;;;17.10;65.80;;;;;;5090060;28;20124;-68
2022/05/11 09:57:08;;;;;;;13.65;2.35;;;17.10;63.90;;;;;;5082764;28;20067;-69
2022/05/11 09:59:40;;;;;;;9.55;1.98;;;17.10;63.60;;;;;;5088926;28;20044;-68
2022/05/11 10:02:24;;;;;;;8.57;1.45;;;17.20;63.80;;;;;;5090021;28;20039;-69
2022/05/11 10:05:03;;;;;;;10.85;1.50;;;17.10;61.10;;;;;;5090083;28;20079;-68
2022/05/11 10:07:36;;;;;;;10.05;2.58;;;17.00;60.70;;;;;;5089529;28;20083;-69
2022/05/11 10:10:12;;;;;;;12.52;2.45;;;17.10;61.80;;;;;;5089907;28;20040;-70
2022/05/11 10:12:41;;;;;;;15.95;3.50;;;17.10;62.90;;;;;;5089794;28;20529;-69
2022/05/11 10:24:17;;;;;;;12.88;3.45;;;17.30;65.80;;;;;;5082402;28;20044;-68
2022/05/11 10:26:48;;;;;;;12.70;2.90;;;17.60;66.00;;;;;;5089587;28;20382;-68
2022/05/11 10:29:32;;;;;;;13.57;2.72;;;17.90;65.60;;;;;;5089461;28;20971;-68
2022/05/11 10:32:27;;;;;;;12.13;3.60;;;17.90;64.30;;;;;;5089702;28;20799;-68
2022/05/11 10:34:55;;;;;;;11.88;2.40;;;18.10;63.50;;;;;;5086407;28;20432;-69
2022/05/11 10:37:38;;;;;;;15.80;3.53;;;18.10;63.10;;;;;;5089193;28;20047;-69
2022/05/11 10:40:26;;;;;;;13.50;2.97;;;18.10;62.90;;;;;;5089418;28;20051;-69
2022/05/11 10:43:10;;;;;;;15.98;4.03;;;18.20;63.10;;;;;;5089789;28;20047;-68
2022/05/11 10:45:42;;;;;;;11.95;2.05;;;18.30;63.60;;;;;;5088633;28;20508;-69
2022/05/11 10:48:35;;;;;;;8.43;2.33;;;18.40;62.70;;;;;;5088520;28;20044;-69
2022/05/11 10:51:13;;;;;;;12.88;3.72;;;18.50;61.10;;;;;;5089152;28;20055;-68
2022/05/11 10:53:52;;;;;;;15.13;3.65;;;18.50;60.60;;;;;;5089237;28;20125;-68
2022/05/11 10:56:39;;;;;;;22.33;4.63;;;18.50;62.10;;;;;;5071349;28;20068;-69
2022/05/11 10:59:42;;;;;;;21.15;3.85;;;18.60;62.80;;;;;;5089380;28;20044;-68
2022/05/11 11:02:26;;;;;;;26.13;4.88;;;18.80;61.90;;;;;;5089321;28;20386;-68
2022/05/11 11:04:58;;;;;;;24.70;5.05;;;19.00;62.80;;;;;;5089382;28;20041;-69
2022/05/11 11:07:26;;;;;;;22.85;6.00;;;19.00;63.60;;;;;;5089369;28;20067;-69
2022/05/11 11:09:59;;;;;;;19.25;4.22;;;18.90;64.00;;;;;;5089409;28;20044;-68
2022/05/11 11:12:51;;;;;;;19.00;4.78;;;19.00;63.90;;;;;;5088980;28;20056;-69
2022/05/11 11:15:22;;;;;;;21.88;4.47;;;18.90;63.70;;;;;;5088699;28;20044;-69
2022/05/11 11:17:48;;;;;;;25.42;5.50;;;19.00;64.40;;;;;;5089237;28;20048;-68
2022/05/11 11:20:18;;;;;;;22.65;4.85;;;19.00;63.90;;;;;;5089102;28;20044;-68
2022/05/11 11:23:07;;;;;;;18.55;4.47;;;19.10;63.40;;;;;;5089146;28;20056;-67
2022/05/11 11:25:52;;;;;;;17.15;4.10;;;19.10;63.70;;;;;;5088870;28;20102;-68
2022/05/11 11:28:21;;;;;;;13.32;3.63;;;19.20;64.20;;;;;;5088282;28;20491;-68
2022/05/11 11:30:58;;;;;;;17.83;4.47;;;19.20;63.70;;;;;;5088956;28;20076;-69
2022/05/11 11:33:30;;;;;;;18.58;4.28;;;19.30;62.20;;;;;;5087880;28;20048;-69
2022/05/11 11:36:21;;;;;;;18.02;3.90;;;19.20;62.20;;;;;;5071118;28;20046;-68
2022/05/11 11:38:49;;;;;;;22.25;5.50;;;19.00;62.90;;;;;;5088699;28;20076;-68
2022/05/11 11:41:17;;;;;;;18.15;4.60;;;18.80;63.10;;;;;;5089086;28;20047;-69
2022/05/11 11:43:57;;;;;;;21.40;5.43;;;18.70;63.00;;;;;;5088958;28;20040;-67
2022/05/11 11:46:35;;;;;;;18.63;3.80;;;18.70;63.70;;;;;;5088960;28;20047;-69
2022/05/11 11:49:28;;;;;;;18.13;5.63;;;18.60;63.70;;;;;;5089097;28;20047;-68
2022/05/11 11:52:01;;;;;;;14.02;3.33;;;18.50;63.50;;;;;;5088839;28;20044;-68
2022/05/11 11:54:39;;;;;;;22.67;5.20;;;18.30;63.50;;;;;;5088876;28;20173;-69
2022/05/11 11:57:23;;;;;;;19.92;4.15;;;18.00;61.30;;;;;;5088824;28;20048;-68
2022/05/11 11:59:57;;;;;;;10.48;2.30;;;18.00;60.80;;;;;;5091337;28;20052;-69
2022/05/11 12:02:33;;;;;;;13.63;2.40;;;18.00;61.00;;;;;;5092649;28;20755;-69
2022/05/11 12:05:26;;;;;;;8.10;1.75;;;18.20;61.30;;;;;;5092546;28;20083;-68
2022/05/11 12:17:03;;;;;;;11.63;2.55;;;18.50;59.80;;;;;;5092096;28;20056;-69
2022/05/11 12:19:35;;;;;;;18.45;2.85;;;18.60;57.70;;;;;;5091083;28;20105;-67
2022/05/11 12:22:14;;;;;;;11.75;2.90;;;18.80;58.40;;;;;;5092363;28;20496;-69
2022/05/11 12:24:56;;;;;;;14.18;3.05;;;19.00;59.20;;;;;;5091630;28;20044;-69
2022/05/11 12:27:25;;;;;;;9.90;2.60;;;19.10;58.30;;;;;;5092100;28;20089;-69
2022/05/11 12:29:58;;;;;;;20.38;3.35;;;19.30;58.80;;;;;;5091483;28;20488;-70
2022/05/11 12:32:40;;;;;;;18.58;4.78;;;19.50;58.50;;;;;;5091632;28;20146;-70
2022/05/11 12:35:19;;;;;;;16.67;4.03;;;19.50;58.50;;;;;;5091850;28;20032;-69
2022/05/11 12:37:54;;;;;;;11.88;3.45;;;19.50;58.60;;;;;;5091563;28;20040;-70
2022/05/11 12:40:21;;;;;;;15.68;4.22;;;19.50;58.70;;;;;;5073612;28;20089;-69
2022/05/11 12:42:55;;;;;;;13.98;3.92;;;19.30;59.60;;;;;;5091703;28;20036;-69
2022/05/11 12:45:35;;;;;;;22.55;5.18;;;19.10;60.60;;;;;;5091169;28;20043;-69
2022/05/11 12:48:03;;;;;;;23.95;5.57;;;18.80;61.70;;;;;;5091728;28;20167;-70
2022/05/11 12:50:46;;;;;;;16.35;4.38;;;18.60;62.80;;;;;;5091431;28;20442;-70
2022/05/11 12:53:18;;;;;;;18.42;3.75;;;18.60;63.80;;;;;;5091318;28;20407;-70
2022/05/11 12:55:52;;;;;;;;;;;18.50;62.60;;;;;;5091481;28;20051;-69
2022/05/11 12:58:22;;;;;;;19.27;4.35;;;18.20;63.20;;;;;;5091536;28;20342;-70
2022/05/11 13:00:55;;;;;;;26.38;4.07;;;18.10;64.10;;;;;;5091323;28;20054;-69
2022/05/11 13:03:26;;;;;;;17.48;3.58;;;18.30;63.80;;;;;;5091226;28;20044;-69
2022/05/11 13:05:59;;;;;;;16.05;4.35;;;18.40;63.40;;;;;;5091214;28;20515;-69
2022/05/11 13:08:28;;;;;;;21.60;3.55;;;18.40;62.80;;;;;;5091072;28;20047;-69
2022/05/11 13:10:55;;;;;;;15.40;3.05;;;18.50;62.10;;;;;;5089867;28;20489;-68
2022/05/11 13:13:30;;;;;;;19.08;4.00;;;18.60;61.80;;;;;;5090922;28;20056;-68
2022/05/11 13:16:06;;;;;;;18.52;3.97;;;18.70;62.00;;;;;;5091248;28;20048;-68
2022/05/11 13:18:33;;;;;;;13.65;4.35;;;18.80;62.40;;;;;;5091013;28;20483;-69
2022/05/11 13:21:01;;;;;;;20.63;4.10;;;18.90;61.80;;;;;;5090791;28;20405;-69
2022/05/11 13:23:30;;;;;;;19.52;3.88;;;18.80;59.90;;;;;;5090910;28;20058;-70
2022/05/11 13:25:58;;;;;;;21.98;3.63;;;18.60;59.70;;;;;;5090882;28;20042;-69
2022/05/11 13:28:41;;;;;;;19.13;4.15;;;18.50;60.80;;;;;;5090831;28;20044;-68
2022/05/11 13:31:30;;;;;;;20.23;3.53;;;18.50;61.60;;;;;;5090643;28;20042;-69